Terminal Aerodrome Forecast
Issued by NWS Houston/Galveston, TX

Home | Current Version | Previous Version | Text Only | Print | Product List | Glossary On
Versions: 1 2 3 4 5 6 7 8 9 10 11 12 13 14 15 16
000
FTUS44 KHGX 291120
TAFGLS
TAF
KGLS 291120Z 2912/3012 VRB05KT P6SM SKC
     FM291500 01011KT P6SM SKC
     FM300400 03014G24KT P6SM SKC
     FM301100 05010KT P6SM SKC=

USA.gov is the U.S. government's official web portal to all federal, state and local government web resources and services.